divxtotal.com alexa rank chart, divxtotal.com alexa rank daily changes

divxtotal.com alexa rank chart, divxtotal.com alexa rank daily changes

divxtotal.com
Actual rank:
511 170

RANK HISTORY

Date Rank Diff
2017/10/20 511 170 +15 345
2017/10/19 495 825 +37 220
2017/10/18 458 605 +25 532
2017/10/17 433 073 +14 273
2017/10/16 418 800 +17 783
2017/10/14 401 017 +44 110
2017/10/13 356 907 +16 602
2017/10/12 340 305 +37 858
2017/10/11 302 447 +31 644
2017/10/10 270 803 +20 289
2017/10/09 250 514 +4 548
2017/10/08 245 966 +16 554
2017/10/07 229 412 +5 357
2017/10/06 224 055 +6 264
2017/10/05 217 791 +9 243
2017/10/04 208 548 +11 080
2017/10/03 197 468 +3 553
2017/10/02 193 915 +9 962
2017/10/01 183 953 +12 793
2017/09/30 171 160 +4 749
2017/09/29 166 411 +4 393
2017/09/28 162 018 +4 836
2017/09/27 157 182 +4 938
2017/09/26 152 244 +920
2017/09/25 151 324 +2 648
2017/09/24 148 676 -286
2017/09/23 148 962 +2 184
2017/09/22 146 778 -478
2017/09/20 147 256 +4 264
2017/09/19 142 992 -349
2017/09/18 143 341 -993
2017/09/17 144 334 +1 058
2017/09/16 143 276 -194
2017/09/15 143 470 +5 570
2017/09/14 137 900 -2 167
2017/09/13 140 067 +304
2017/09/12 139 763 -5 524
2017/09/11 145 287 -7 194
2017/09/10 152 481 -6 590
2017/09/09 159 071 -776
2017/09/08 159 847 -6 967
2017/09/07 166 814 +122 541
2017/09/06 44 273 +4 456
2017/09/05 39 817 +3 233
2017/09/04 36 584 +2 162
2017/09/03 34 422 +3 534
2017/09/02 30 888 +2 384
2017/09/01 28 504 +2 719
2017/08/31 25 785 +7 190
2017/08/30 18 595 +3 760
2017/08/29 14 835 +2 260
2017/08/28 12 575 +1 646
2017/08/27 10 929 +1 327
2017/08/26 9 602 +1 019
2017/08/25 8 583 +482
2017/08/24 8 101 +948
2017/08/23 7 153 +126
2017/08/22 7 027 +550
2017/08/21 6 477

WIDGET FOR YOUR SITE

DOMAINS WITH THE NEAREST RANK

Domain Rank
longmaturesex.com 511 165
fapcom.edu.br 511 166
universal88.com 511 167
arab-states.com 511 168
wellesleyps.org 511 169
divxtotal.com 511 170
mybloggingthing.com 511 171
nhin.com 511 172
cdg35.fr 511 173
svapostar.com 511 174
withthebest.com 511 175

DOMAINS WITH THE NEAREST RANK BY TLD .com

Domain Rank
oatsovernight.com 511 159
potenginainternet.com 511 162
longmaturesex.com 511 165
universal88.com 511 167
arab-states.com 511 168
divxtotal.com 511 170
mybloggingthing.com 511 171
nhin.com 511 172
svapostar.com 511 174
withthebest.com 511 175
ffchamps.com 511 177